createdAt,value
2024-01-26T00:01:44.529Z,2.15
2024-01-26T00:04:12.724Z,2.04
2024-01-26T00:06:40.258Z,2.04
2024-01-26T00:09:14.138Z,2.02
2024-01-26T00:11:43.457Z,2.04
2024-01-26T00:14:10.593Z,2.05
2024-01-26T00:16:40.119Z,2.09
2024-01-26T00:19:09.631Z,2.05
2024-01-26T00:21:39.047Z,2.07
2024-01-26T00:24:08.344Z,2.01
2024-01-26T00:26:36.525Z,2.06
2024-01-26T00:29:05.339Z,2.08
2024-01-26T00:31:32.806Z,2.12
2024-01-26T00:34:01.906Z,2.08
2024-01-26T00:36:30.777Z,2.09
2024-01-26T00:38:59.851Z,2.13
2024-01-26T00:41:28.767Z,2.16
2024-01-26T00:43:59.200Z,2.21
2024-01-26T00:46:27.088Z,2.28
2024-01-26T00:48:55.159Z,2.26
2024-01-26T00:51:24.143Z,2.29
2024-01-26T00:53:53.142Z,2.30
2024-01-26T00:56:21.580Z,2.34
2024-01-26T00:58:50.366Z,2.40
2024-01-26T01:01:18.477Z,2.43
2024-01-26T01:03:46.261Z,2.48
2024-01-26T01:06:14.562Z,2.53
2024-01-26T01:08:44.619Z,2.61
2024-01-26T01:11:13.038Z,2.62
2024-01-26T01:13:41.128Z,2.60
2024-01-26T01:16:13.100Z,2.64
2024-01-26T01:18:42.929Z,2.70
2024-01-26T01:21:11.553Z,2.63
2024-01-26T01:23:40.640Z,2.59
2024-01-26T01:26:09.240Z,2.49
2024-01-26T01:28:37.492Z,2.48
2024-01-26T01:31:05.743Z,2.48
2024-01-26T01:33:34.115Z,2.47
2024-01-26T01:36:02.575Z,2.44
2024-01-26T01:38:30.504Z,2.32
2024-01-26T01:40:58.313Z,2.31
2024-01-26T01:43:26.175Z,2.24
2024-01-26T01:45:54.490Z,2.22
2024-01-26T01:48:22.535Z,2.20
2024-01-26T01:50:51.306Z,2.23
2024-01-26T01:53:20.327Z,2.27
2024-01-26T01:55:51.635Z,2.26
2024-01-26T01:58:22.101Z,2.23
2024-01-26T02:00:50.376Z,2.27
2024-01-26T02:03:21.071Z,2.30
2024-01-26T02:05:49.294Z,2.36
2024-01-26T02:08:17.950Z,2.35
2024-01-26T02:10:45.866Z,2.29
2024-01-26T02:13:13.593Z,2.38
2024-01-26T02:15:43.114Z,2.50
2024-01-26T02:18:10.877Z,2.63
2024-01-26T02:20:47.314Z,2.74
2024-01-26T02:23:24.791Z,2.81
2024-01-26T02:25:54.253Z,2.79
2024-01-26T02:28:22.099Z,2.75
2024-01-26T02:30:49.986Z,2.82
2024-01-26T02:33:17.931Z,2.91
2024-01-26T02:35:45.938Z,2.97
2024-01-26T02:38:13.801Z,2.96
2024-01-26T02:40:43.156Z,3.00
2024-01-26T02:43:11.525Z,3.03
2024-01-26T02:45:38.934Z,3.08
2024-01-26T02:48:06.750Z,3.05
2024-01-26T02:50:35.332Z,3.08
2024-01-26T02:53:03.572Z,3.11
2024-01-26T02:55:31.285Z,3.13
2024-01-26T02:57:59.077Z,3.11
2024-01-26T03:00:27.380Z,3.09
2024-01-26T03:02:55.819Z,3.05
2024-01-26T03:05:24.450Z,3.04
2024-01-26T03:07:52.538Z,3.08
2024-01-26T03:10:20.783Z,3.06
2024-01-26T03:12:49.123Z,3.04
2024-01-26T03:15:17.786Z,3.02
2024-01-26T03:17:45.619Z,3.04
2024-01-26T03:20:14.579Z,3.06
2024-01-26T03:22:44.006Z,3.01
2024-01-26T03:25:11.809Z,2.99
2024-01-26T03:27:40.072Z,2.98
2024-01-26T03:30:09.174Z,3.07
2024-01-26T03:32:37.127Z,3.08
2024-01-26T03:35:05.891Z,3.04
2024-01-26T03:37:33.513Z,2.99
2024-01-26T03:40:03.870Z,2.98
2024-01-26T03:42:31.862Z,2.99
2024-01-26T03:45:00.891Z,3.04
2024-01-26T03:47:28.989Z,2.98
2024-01-26T03:49:57.444Z,2.96
2024-01-26T03:52:25.754Z,2.97
2024-01-26T03:54:54.955Z,2.93
2024-01-26T03:57:23.436Z,2.95
2024-01-26T03:59:51.346Z,2.86
2024-01-26T04:02:19.320Z,2.79
2024-01-26T04:04:46.685Z,2.75
2024-01-26T04:07:14.964Z,2.78
2024-01-26T04:09:43.090Z,2.73
2024-01-26T04:12:11.065Z,2.70
2024-01-26T04:14:38.884Z,2.71
2024-01-26T04:17:07.384Z,2.73
2024-01-26T04:19:34.750Z,2.68
2024-01-26T04:22:02.352Z,2.67
2024-01-26T04:24:30.210Z,2.71
2024-01-26T04:26:57.833Z,2.73
2024-01-26T04:29:26.302Z,2.68
2024-01-26T04:31:54.335Z,2.65
2024-01-26T04:34:24.363Z,2.55
2024-01-26T04:36:52.512Z,2.58
2024-01-26T04:39:20.900Z,2.68
2024-01-26T04:41:48.662Z,2.71
2024-01-26T04:44:16.721Z,2.69
2024-01-26T04:46:44.258Z,2.70
2024-01-26T04:49:13.587Z,2.73
2024-01-26T04:51:42.026Z,2.76
2024-01-26T04:54:09.753Z,2.74
2024-01-26T04:56:38.163Z,2.71
2024-01-26T04:59:08.527Z,2.63
2024-01-26T05:01:36.273Z,2.61
2024-01-26T05:04:04.801Z,2.66
2024-01-26T05:06:33.134Z,2.55
2024-01-26T05:09:01.132Z,2.58
2024-01-26T05:11:29.488Z,2.60
2024-01-26T05:13:57.504Z,2.59
2024-01-26T05:16:25.851Z,2.55
2024-01-26T05:18:54.439Z,2.62
2024-01-26T05:21:24.396Z,2.57
2024-01-26T05:23:52.784Z,2.61
2024-01-26T05:26:22.177Z,2.51
2024-01-26T05:28:50.060Z,2.51
2024-01-26T05:31:18.402Z,2.49
2024-01-26T05:33:47.450Z,2.45
2024-01-26T05:36:15.288Z,2.42
2024-01-26T05:38:42.854Z,2.47
2024-01-26T05:41:13.103Z,2.47
2024-01-26T05:43:41.051Z,2.45
2024-01-26T05:46:11.925Z,2.47
2024-01-26T05:48:44.064Z,2.51
2024-01-26T05:51:13.771Z,2.48
2024-01-26T05:53:41.111Z,2.45
2024-01-26T05:56:10.833Z,2.47
2024-01-26T05:58:40.395Z,2.47
2024-01-26T06:01:08.583Z,2.46
2024-01-26T06:03:38.759Z,2.47
2024-01-26T06:06:07.238Z,2.47
2024-01-26T06:08:37.827Z,2.46
2024-01-26T06:11:06.469Z,2.45
2024-01-26T06:13:35.882Z,2.49
2024-01-26T06:16:05.005Z,2.50
2024-01-26T06:18:32.932Z,2.53
2024-01-26T06:21:00.989Z,2.58
2024-01-26T06:23:30.190Z,2.61
2024-01-26T06:25:58.488Z,2.65
2024-01-26T06:28:26.829Z,2.70
2024-01-26T06:30:55.935Z,2.75
2024-01-26T06:33:24.901Z,2.76
2024-01-26T06:35:52.760Z,2.81
2024-01-26T06:38:22.063Z,2.84
2024-01-26T06:41:14.679Z,2.89
2024-01-26T06:47:07.284Z,2.92
2024-01-26T06:50:14.484Z,2.89
2024-01-26T06:53:05.645Z,2.91
2024-01-26T06:58:52.863Z,2.86
2024-01-26T07:01:25.300Z,2.84
2024-01-26T07:04:25.586Z,2.83
2024-01-26T07:07:24.466Z,2.86
2024-01-26T07:10:48.439Z,2.85
2024-01-26T07:13:55.951Z,2.86
2024-01-26T07:17:15.723Z,2.85
2024-01-26T07:19:48.113Z,2.84
2024-01-26T07:24:25.375Z,2.86
2024-01-26T07:26:56.531Z,2.85
2024-01-26T07:29:56.617Z,2.81
2024-01-26T07:32:28.225Z,2.81
2024-01-26T07:35:11.677Z,2.83
2024-01-26T07:37:57.834Z,2.81
2024-01-26T07:40:29.467Z,2.77
2024-01-26T07:43:09.647Z,2.74
2024-01-26T07:52:00.511Z,2.83
2024-01-26T07:58:38.807Z,2.77
2024-01-26T08:05:18.442Z,2.77
2024-01-26T08:08:09.614Z,2.76
2024-01-26T08:11:12.072Z,2.73
2024-01-26T08:14:04.137Z,2.63
2024-01-26T08:17:03.634Z,2.57
2024-01-26T08:19:38.055Z,2.60
2024-01-26T08:22:14.856Z,2.48
2024-01-26T08:24:50.091Z,2.50
2024-01-26T08:27:23.381Z,2.49
2024-01-26T08:29:55.936Z,2.47
2024-01-26T08:33:26.783Z,2.41
2024-01-26T08:36:23.674Z,2.39
2024-01-26T08:39:07.254Z,2.38
2024-01-26T08:41:40.485Z,2.39
2024-01-26T08:44:34.685Z,2.34
2024-01-26T08:53:19.759Z,2.25
2024-01-26T08:53:50.104Z,2.25
2024-01-26T08:57:03.947Z,2.23
2024-01-26T08:59:43.515Z,2.11
2024-01-26T09:02:28.293Z,2.12
2024-01-26T09:05:46.661Z,2.09
2024-01-26T09:08:47.281Z,2.11
2024-01-26T09:11:32.509Z,2.21
2024-01-26T09:14:06.147Z,2.13
2024-01-26T09:17:04.517Z,2.21
2024-01-26T09:19:47.398Z,2.24
2024-01-26T09:22:17.215Z,2.19
2024-01-26T09:24:57.688Z,2.25
2024-01-26T09:27:36.576Z,2.26
2024-01-26T09:30:56.475Z,2.31
2024-01-26T09:34:36.470Z,2.36
2024-01-26T09:37:12.268Z,2.30
2024-01-26T09:40:19.383Z,2.22
2024-01-26T09:47:40.346Z,2.24
2024-01-26T09:50:21.161Z,2.12
2024-01-26T09:53:05.321Z,2.08
2024-01-26T09:55:45.740Z,2.13
2024-01-26T09:58:44.075Z,2.09
2024-01-26T10:01:22.332Z,1.99
2024-01-26T10:03:53.611Z,1.98
2024-01-26T10:06:27.311Z,2.03
2024-01-26T10:08:55.411Z,2.03
2024-01-26T10:11:23.777Z,2.01
2024-01-26T10:13:57.379Z,2.03
2024-01-26T10:16:26.270Z,2.08
2024-01-26T10:18:54.641Z,2.24
2024-01-26T10:21:23.317Z,2.27
2024-01-26T10:23:56.622Z,2.20
2024-01-26T10:26:30.547Z,2.25
2024-01-26T10:29:10.301Z,2.21
2024-01-26T10:31:42.444Z,2.25
2024-01-26T10:34:25.260Z,2.33
2024-01-26T10:37:11.671Z,2.31
2024-01-26T10:43:23.909Z,2.40
2024-01-26T10:45:54.418Z,2.39
2024-01-26T10:48:33.755Z,2.34
2024-01-26T10:51:05.729Z,2.34
2024-01-26T10:53:37.653Z,2.37
2024-01-26T10:57:11.399Z,2.34
2024-01-26T11:00:29.374Z,2.37
2024-01-26T11:16:07.813Z,2.56
2024-01-26T11:18:36.857Z,2.49
2024-01-26T11:21:45.098Z,2.51
2024-01-26T11:24:25.209Z,2.60
2024-01-26T11:30:33.517Z,2.82
2024-01-26T11:33:04.857Z,2.88
2024-01-26T11:36:15.433Z,2.74
2024-01-26T11:39:17.173Z,2.77
2024-01-26T11:41:57.026Z,2.53
2024-01-26T11:44:32.018Z,2.60
2024-01-26T11:47:24.336Z,2.61
2024-01-26T11:50:09.255Z,2.55
2024-01-26T11:52:41.567Z,2.52
2024-01-26T11:55:14.326Z,2.58
2024-01-26T11:57:48.960Z,2.62
2024-01-26T12:00:30.198Z,2.64
2024-01-26T12:02:59.039Z,2.68
2024-01-26T12:05:27.530Z,2.63
2024-01-26T12:12:50.154Z,2.75
2024-01-26T12:15:18.580Z,2.74
2024-01-26T12:17:48.198Z,2.72
2024-01-26T12:20:18.962Z,2.74
2024-01-26T12:22:47.305Z,2.69
2024-01-26T12:25:15.886Z,2.72
2024-01-26T12:27:50.503Z,2.63
2024-01-26T12:30:27.315Z,2.62
2024-01-26T12:33:06.359Z,2.53
2024-01-26T12:35:40.866Z,2.51
2024-01-26T12:38:10.344Z,2.48
2024-01-26T12:40:38.821Z,2.53
2024-01-26T12:43:14.974Z,2.54
2024-01-26T12:45:47.880Z,2.59
2024-01-26T12:48:16.512Z,2.61
2024-01-26T12:50:44.897Z,2.55
2024-01-26T12:53:13.609Z,2.51
2024-01-26T12:55:41.834Z,2.54
2024-01-26T12:58:12.336Z,2.54
2024-01-26T13:00:41.164Z,2.51
2024-01-26T13:03:09.783Z,2.53
2024-01-26T13:05:39.972Z,2.51
2024-01-26T13:08:09.031Z,2.54
2024-01-26T13:10:37.133Z,2.53
2024-01-26T13:13:05.616Z,2.55
2024-01-26T13:15:34.999Z,2.48
2024-01-26T13:18:06.875Z,2.51
2024-01-26T13:20:39.763Z,2.53
2024-01-26T13:23:09.680Z,2.50
2024-01-26T13:25:38.803Z,2.54
2024-01-26T13:28:07.179Z,2.54
2024-01-26T13:30:35.676Z,2.61
2024-01-26T13:33:04.455Z,2.64
2024-01-26T13:35:32.124Z,2.57
2024-01-26T13:38:01.610Z,2.50
2024-01-26T13:40:29.064Z,2.55
2024-01-26T13:42:57.790Z,2.56
2024-01-26T13:45:27.014Z,2.54
2024-01-26T13:48:01.146Z,2.59
2024-01-26T13:50:33.192Z,2.60
2024-01-26T13:53:03.104Z,2.57
2024-01-26T13:55:31.645Z,2.66
2024-01-26T13:58:00.649Z,2.66
2024-01-26T14:00:29.816Z,2.69
2024-01-26T14:02:59.122Z,2.63
2024-01-26T14:05:27.978Z,2.66
2024-01-26T14:07:55.934Z,2.57
2024-01-26T14:10:26.275Z,2.57
2024-01-26T14:12:55.691Z,2.62
2024-01-26T14:15:25.620Z,2.59
2024-01-26T14:17:55.048Z,2.63
2024-01-26T14:20:23.273Z,2.57
2024-01-26T14:22:52.701Z,2.59
2024-01-26T14:25:21.820Z,2.62
2024-01-26T14:27:53.354Z,2.59
2024-01-26T14:30:24.153Z,2.68
2024-01-26T14:32:53.002Z,2.72
2024-01-26T14:35:22.189Z,2.61
2024-01-26T14:37:50.463Z,2.63
2024-01-26T14:40:18.714Z,2.58
2024-01-26T14:42:50.118Z,2.58
2024-01-26T14:45:17.706Z,2.49
2024-01-26T14:47:48.321Z,2.42
2024-01-26T14:50:19.163Z,2.37
2024-01-26T14:52:48.234Z,2.32
2024-01-26T14:55:18.000Z,2.31
2024-01-26T14:57:46.097Z,2.24
2024-01-26T15:00:16.633Z,2.17
2024-01-26T15:02:45.440Z,2.16
2024-01-26T15:05:13.734Z,2.07
2024-01-26T15:07:46.270Z,1.97
2024-01-26T15:10:17.440Z,1.95
2024-01-26T15:12:46.149Z,1.94
2024-01-26T15:15:14.926Z,1.90
2024-01-26T15:17:43.641Z,1.83
2024-01-26T15:20:14.680Z,1.79
2024-01-26T15:22:49.185Z,1.78
2024-01-26T15:25:17.411Z,1.76
2024-01-26T15:27:45.968Z,1.78
2024-01-26T15:30:17.910Z,1.81
2024-01-26T15:32:47.394Z,1.83
2024-01-26T15:35:16.169Z,1.82
2024-01-26T15:37:45.035Z,1.80
2024-01-26T15:40:15.103Z,1.78
2024-01-26T15:42:45.403Z,1.77
2024-01-26T15:45:15.531Z,1.73
2024-01-26T15:47:44.102Z,1.71
2024-01-26T15:50:12.763Z,1.71
2024-01-26T15:52:45.410Z,1.70
2024-01-26T15:55:16.907Z,1.67
2024-01-26T15:57:46.258Z,1.66
2024-01-26T16:00:15.331Z,1.66
2024-01-26T16:02:43.884Z,1.62
2024-01-26T16:05:12.695Z,1.61
2024-01-26T16:07:40.160Z,1.61
2024-01-26T16:10:10.589Z,1.60
2024-01-26T16:12:39.104Z,1.57
2024-01-26T16:15:08.258Z,1.57
2024-01-26T16:17:37.026Z,1.56
2024-01-26T16:20:07.226Z,1.56
2024-01-26T16:22:36.585Z,1.56
2024-01-26T16:25:07.512Z,1.56
2024-01-26T16:27:35.647Z,1.53
2024-01-26T16:30:06.126Z,1.53
2024-01-26T16:32:38.280Z,1.54
2024-01-26T16:35:09.654Z,1.54
2024-01-26T16:37:38.973Z,1.53
2024-01-26T16:40:09.928Z,1.54
2024-01-26T16:42:38.947Z,1.53
2024-01-26T16:45:06.949Z,1.50
2024-01-26T16:47:35.466Z,1.47
2024-01-26T16:50:06.550Z,1.44
2024-01-26T16:52:35.994Z,1.43
2024-01-26T16:55:05.907Z,1.39
2024-01-26T16:57:36.653Z,1.35
2024-01-26T17:00:06.555Z,1.33
2024-01-26T17:02:38.568Z,1.33
2024-01-26T17:05:08.034Z,1.34
2024-01-26T17:07:38.283Z,1.34
2024-01-26T17:10:07.268Z,1.34
2024-01-26T17:12:36.525Z,1.35
2024-01-26T17:15:06.140Z,1.29
2024-01-26T17:17:35.173Z,1.27
2024-01-26T17:20:06.314Z,1.29
2024-01-26T17:22:36.495Z,1.31
2024-01-26T17:25:07.325Z,1.32
2024-01-26T17:27:35.525Z,1.30
2024-01-26T17:30:04.097Z,1.28
2024-01-26T17:32:33.133Z,1.26
2024-01-26T17:35:04.445Z,1.24
2024-01-26T17:37:32.654Z,1.22
2024-01-26T17:40:03.447Z,1.22
2024-01-26T17:42:32.765Z,1.22
2024-01-26T17:45:00.787Z,1.24
2024-01-26T17:47:28.551Z,1.23
2024-01-26T17:49:59.130Z,1.19
2024-01-26T17:52:29.170Z,1.18
2024-01-26T17:54:57.855Z,1.15
2024-01-26T17:57:26.491Z,1.15
2024-01-26T17:59:54.969Z,1.14
2024-01-26T18:02:27.087Z,1.13
2024-01-26T18:04:57.529Z,1.12
2024-01-26T18:07:25.927Z,1.11
2024-01-26T18:09:54.831Z,1.11
2024-01-26T18:12:23.592Z,1.12
2024-01-26T18:14:53.758Z,1.17
2024-01-26T18:17:22.232Z,1.15
2024-01-26T18:19:53.108Z,1.15
2024-01-26T18:22:20.763Z,1.11
2024-01-26T18:24:53.556Z,1.10
2024-01-26T18:27:24.527Z,1.06
2024-01-26T18:29:53.950Z,1.04
2024-01-26T18:32:23.071Z,1.01
2024-01-26T18:34:52.584Z,1.00
2024-01-26T18:37:21.511Z,0.97
2024-01-26T18:39:50.772Z,0.94
2024-01-26T18:42:18.752Z,0.93
2024-01-26T18:44:48.206Z,0.91
2024-01-26T18:47:16.495Z,0.89
2024-01-26T18:49:45.960Z,0.83
2024-01-26T18:52:13.834Z,0.78
2024-01-26T18:54:42.097Z,0.76
2024-01-26T18:57:11.278Z,0.72
2024-01-26T18:59:41.296Z,0.63
2024-01-26T19:02:10.544Z,0.61
2024-01-26T19:04:40.002Z,0.62
2024-01-26T19:07:10.288Z,0.54
2024-01-26T19:09:40.313Z,0.50
2024-01-26T19:12:09.613Z,0.42
2024-01-26T19:14:38.276Z,0.38
2024-01-26T19:17:07.838Z,0.33
2024-01-26T19:19:39.061Z,0.32
2024-01-26T19:22:06.808Z,0.28
2024-01-26T19:24:34.948Z,0.29
2024-01-26T19:27:07.183Z,0.25
2024-01-26T19:29:40.178Z,0.17
2024-01-26T19:32:10.423Z,0.18
2024-01-26T19:34:41.016Z,0.15
2024-01-26T19:37:10.922Z,0.16
2024-01-26T19:39:39.652Z,0.18
2024-01-26T19:42:10.038Z,0.16
2024-01-26T19:44:39.902Z,0.18
2024-01-26T19:47:13.178Z,0.21
2024-01-26T19:49:43.790Z,0.18
2024-01-26T19:52:13.232Z,0.17
2024-01-26T19:54:42.714Z,0.23
2024-01-26T19:57:10.933Z,0.26
2024-01-26T19:59:41.731Z,0.30
2024-01-26T20:02:11.133Z,0.32
2024-01-26T20:04:39.247Z,0.30
2024-01-26T20:07:09.369Z,0.31
2024-01-26T20:09:39.637Z,0.34
2024-01-26T20:12:08.587Z,0.37
2024-01-26T20:14:38.699Z,0.39
2024-01-26T20:17:09.991Z,0.34
2024-01-26T20:19:38.995Z,0.31
2024-01-26T20:22:10.907Z,0.31
2024-01-26T20:24:39.699Z,0.29
2024-01-26T20:27:09.366Z,0.30
2024-01-26T20:29:39.048Z,0.34
2024-01-26T20:32:08.954Z,0.38
2024-01-26T20:34:38.427Z,0.38
2024-01-26T20:37:07.782Z,0.38
2024-01-26T20:39:35.953Z,0.43
2024-01-26T20:42:06.591Z,0.46
2024-01-26T20:44:35.556Z,0.41
2024-01-26T20:47:05.581Z,0.45
2024-01-26T20:49:37.510Z,0.44
2024-01-26T20:52:06.463Z,0.53
2024-01-26T20:54:35.026Z,0.55
2024-01-26T20:57:04.471Z,0.53
2024-01-26T20:59:33.805Z,0.54
2024-01-26T21:02:04.501Z,0.55
2024-01-26T21:04:32.692Z,0.55
2024-01-26T21:07:01.396Z,0.56
2024-01-26T21:09:31.214Z,0.62
2024-01-26T21:11:59.504Z,0.65
2024-01-26T21:14:28.232Z,0.64
2024-01-26T21:16:56.862Z,0.66
2024-01-26T21:19:25.156Z,0.65
2024-01-26T21:21:53.799Z,0.57
2024-01-26T21:24:22.924Z,0.56
2024-01-26T21:26:51.888Z,0.56
2024-01-26T21:29:20.173Z,0.62
2024-01-26T21:31:52.201Z,0.65
2024-01-26T21:34:20.375Z,0.66
2024-01-26T21:36:50.139Z,0.62
2024-01-26T21:39:20.443Z,0.64
2024-01-26T21:41:49.322Z,0.66
2024-01-26T21:44:18.257Z,0.65
2024-01-26T21:46:45.935Z,0.70
2024-01-26T21:49:16.786Z,0.77
2024-01-26T21:51:55.017Z,0.74
2024-01-26T21:54:26.679Z,0.67
2024-01-26T21:56:54.750Z,0.68
2024-01-26T21:59:24.212Z,0.65
2024-01-26T22:01:54.255Z,0.64
2024-01-26T22:04:24.486Z,0.56
2024-01-26T22:06:53.479Z,0.53
2024-01-26T22:09:21.855Z,0.57
2024-01-26T22:11:52.011Z,0.55
2024-01-26T22:14:20.555Z,0.56
2024-01-26T22:16:50.368Z,0.61
2024-01-26T22:19:19.989Z,0.58
2024-01-26T22:21:49.235Z,0.60
2024-01-26T22:24:18.364Z,0.64
2024-01-26T22:26:47.224Z,0.67
2024-01-26T22:29:14.866Z,0.66
2024-01-26T22:31:44.887Z,0.65
2024-01-26T22:34:13.338Z,0.61
2024-01-26T22:36:42.058Z,0.58
2024-01-26T22:39:11.911Z,0.52
2024-01-26T22:41:41.166Z,0.49
2024-01-26T22:44:10.145Z,0.50
2024-01-26T22:46:42.801Z,0.50
2024-01-26T22:49:11.221Z,0.47
2024-01-26T22:51:40.637Z,0.49
2024-01-26T22:54:08.637Z,0.50
2024-01-26T22:56:38.539Z,0.51
2024-01-26T22:59:06.312Z,0.48
2024-01-26T23:01:34.733Z,0.41
2024-01-26T23:04:04.924Z,0.38
2024-01-26T23:06:32.568Z,0.35
2024-01-26T23:09:01.419Z,0.29
2024-01-26T23:11:33.369Z,0.26
2024-01-26T23:14:02.635Z,0.22
2024-01-26T23:16:31.794Z,0.16
2024-01-26T23:19:00.538Z,0.10
2024-01-26T23:21:29.718Z,0.01
2024-01-26T23:23:58.008Z,0.01
2024-01-26T23:26:27.416Z,-0.02
2024-01-26T23:28:54.914Z,-0.00
2024-01-26T23:31:23.441Z,0.02
2024-01-26T23:33:53.676Z,0.04
2024-01-26T23:36:22.374Z,0.03
2024-01-26T23:38:51.973Z,0.01
2024-01-26T23:41:20.696Z,0.02
2024-01-26T23:43:50.073Z,0.03
2024-01-26T23:46:18.085Z,0.04
2024-01-26T23:48:46.309Z,0.05
2024-01-26T23:51:16.339Z,0.06
2024-01-26T23:53:44.720Z,0.04
2024-01-26T23:56:12.802Z,0.08
2024-01-26T23:58:40.944Z,0.08
